Time;durP1;ratioP1;P1;durP2;ratioP2;P2;SDS_P1;SDS_P2;PMS_P1;PMS_P2;Temp;Humidity;BMP_temperature;BMP_pressure;BME280_temperature;BME280_humidity;BME280_pressure;Samples;Min_cycle;Max_cycle;Signal;HPM_P1;HPM_P2
2022/08/08 00:02:03;;;;;;;3.78;2.22;;;13.80;63.20;;;;;;4082803;28;20750;-85
2022/08/08 00:04:44;;;;;;;3.63;1.92;;;13.70;62.70;;;;;;4089650;28;20118;-86
2022/08/08 00:06:55;;;;;;;4.60;2.30;;;13.70;63.10;;;;;;4071589;29;20059;-87
2022/08/08 00:09:14;;;;;;;3.80;2.60;;;13.70;62.80;;;;;;4088201;28;20537;-86
2022/08/08 00:11:42;;;;;;;3.92;2.47;;;13.70;63.20;;;;;;4070869;29;20039;-87
2022/08/08 00:14:03;;;;;;;5.38;2.30;;;13.60;63.30;;;;;;4100458;28;20093;-84
2022/08/08 00:16:08;;;;;;;4.35;2.40;;;13.60;63.40;;;;;;4087416;28;20030;-86
2022/08/08 00:18:28;;;;;;;4.60;2.63;;;13.50;63.20;;;;;;4090453;28;20542;-85
2022/08/08 00:20:39;;;;;;;6.82;2.67;;;13.50;63.30;;;;;;4086254;28;20034;-86
2022/08/08 00:22:48;;;;;;;4.93;2.40;;;13.50;63.30;;;;;;4091689;28;20040;-85
2022/08/08 00:24:57;;;;;;;5.65;2.78;;;13.40;63.40;;;;;;4102162;28;20034;-87
2022/08/08 00:27:05;;;;;;;6.28;2.90;;;13.40;63.40;;;;;;4086255;28;20036;-87
2022/08/08 00:29:14;;;;;;;7.63;2.67;;;13.40;63.40;;;;;;4072992;29;20035;-85
2022/08/08 00:31:27;;;;;;;5.10;2.90;;;13.30;63.40;;;;;;4075016;29;20027;-85
2022/08/08 00:33:35;;;;;;;7.00;2.90;;;13.30;63.60;;;;;;4071992;29;20647;-85
2022/08/08 00:36:13;;;;;;;4.07;3.10;;;13.30;63.50;;;;;;4089247;28;20027;-84
2022/08/08 00:38:31;;;;;;;3.75;2.63;;;13.30;63.80;;;;;;4085582;28;20400;-84
2022/08/08 00:40:38;;;;;;;7.55;3.22;;;13.20;63.60;;;;;;4073999;29;20024;-85
2022/08/08 00:42:42;;;;;;;5.35;2.60;;;13.20;63.70;;;;;;4085339;28;20027;-84
2022/08/08 00:44:45;;;;;;;4.70;2.80;;;13.20;63.80;;;;;;4070108;29;20557;-84
2022/08/08 00:47:28;;;;;;;6.60;2.70;;;13.20;63.90;;;;;;4069131;29;20445;-85
2022/08/08 00:49:34;;;;;;;6.13;2.30;;;13.10;64.30;;;;;;4086646;28;20043;-85
2022/08/08 00:52:14;;;;;;;4.20;2.58;;;13.10;63.80;;;;;;4090430;28;20051;-83
2022/08/08 00:54:45;;;;;;;3.78;2.30;;;13.10;64.50;;;;;;4071591;29;20055;-84
2022/08/08 00:57:08;;;;;;;4.53;2.47;;;13.10;64.70;;;;;;4090029;28;20034;-84
2022/08/08 00:59:36;;;;;;;3.92;2.35;;;13.00;65.00;;;;;;4074904;29;20094;-85
2022/08/08 01:02:18;;;;;;;4.60;2.47;;;13.00;64.80;;;;;;4086217;28;20062;-86
2022/08/08 01:05:01;;;;;;;7.65;2.78;;;13.00;65.30;;;;;;4026887;29;20581;-85
2022/08/08 01:07:16;;;;;;;6.95;2.88;;;13.00;65.40;;;;;;4092007;28;20051;-85
2022/08/08 01:09:42;;;;;;;8.80;2.95;;;12.90;65.20;;;;;;4076002;29;20040;-85
2022/08/08 01:12:22;;;;;;;4.63;2.72;;;12.90;65.60;;;;;;4088325;28;20035;-83
2022/08/08 01:14:41;;;;;;;4.80;3.28;;;12.90;65.60;;;;;;4089660;28;20433;-85
2022/08/08 01:17:09;;;;;;;6.15;2.90;;;12.90;65.30;;;;;;4087494;28;20037;-85
2022/08/08 01:19:32;;;;;;;7.07;3.42;;;12.80;65.90;;;;;;4102300;28;20114;-85
2022/08/08 01:21:45;;;;;;;4.75;3.03;;;12.90;65.90;;;;;;4088624;28;20102;-85
2022/08/08 01:24:24;;;;;;;7.22;2.90;;;12.80;66.20;;;;;;4091508;28;20043;-85
2022/08/08 01:26:28;;;;;;;5.97;3.13;;;12.80;66.70;;;;;;4061960;29;20035;-85
2022/08/08 01:28:56;;;;;;;6.55;3.63;;;12.80;66.30;;;;;;4090718;28;20098;-85
2022/08/08 01:31:15;;;;;;;4.10;2.90;;;12.80;66.60;;;;;;4095726;28;20047;-85
2022/08/08 01:33:34;;;;;;;9.60;3.42;;;12.80;66.60;;;;;;4087291;28;20030;-84
2022/08/08 01:36:05;;;;;;;5.32;3.13;;;12.80;66.50;;;;;;4087844;28;20052;-84
2022/08/08 01:38:18;;;;;;;6.22;2.83;;;12.80;66.60;;;;;;4057456;29;20032;-84
2022/08/08 01:40:40;;;;;;;4.27;2.80;;;12.80;66.60;;;;;;4083845;28;20039;-85
2022/08/08 01:42:41;;;;;;;4.80;2.97;;;12.80;66.90;;;;;;4081894;28;20310;-85
2022/08/08 01:44:54;;;;;;;5.57;2.75;;;12.80;66.90;;;;;;4085246;28;20023;-84
2022/08/08 01:47:07;;;;;;;5.85;3.35;;;12.80;67.30;;;;;;4089562;28;20027;-85
2022/08/08 01:49:34;;;;;;;4.82;2.78;;;12.80;67.30;;;;;;4089010;28;20059;-85
2022/08/08 01:51:46;;;;;;;6.47;3.00;;;12.80;67.30;;;;;;4089064;28;20035;-85
2022/08/08 01:54:14;;;;;;;2.97;2.50;;;12.80;67.20;;;;;;4069329;29;20405;-85
2022/08/08 01:56:37;;;;;;;5.28;2.92;;;12.80;67.60;;;;;;4085114;28;20059;-87
2022/08/08 01:59:05;;;;;;;5.82;3.13;;;12.80;67.30;;;;;;4088303;28;20038;-85
2022/08/08 02:01:14;;;;;;;3.67;2.30;;;12.80;67.60;;;;;;4086470;28;20397;-88
2022/08/08 02:03:25;;;;;;;6.13;3.00;;;12.80;67.40;;;;;;4084323;28;20035;-82
2022/08/08 02:05:48;;;;;;;9.57;3.17;;;12.80;67.40;;;;;;4073668;29;20043;-84
2022/08/08 02:08:08;;;;;;;8.07;2.80;;;12.80;67.50;;;;;;4093183;28;20050;-84
2022/08/08 02:10:27;;;;;;;6.10;3.88;;;12.80;67.30;;;;;;4104450;28;20572;-85
2022/08/08 02:12:46;;;;;;;6.65;2.58;;;12.80;67.80;;;;;;4097776;28;20106;-85
2022/08/08 02:15:08;;;;;;;4.80;2.53;;;12.80;67.50;;;;;;4088340;28;20091;-85
2022/08/08 02:17:31;;;;;;;3.95;2.78;;;12.80;67.80;;;;;;4064205;29;20114;-86
2022/08/08 02:19:46;;;;;;;4.80;2.88;;;12.80;67.90;;;;;;4089423;28;20078;-85
2022/08/08 02:24:37;;;;;;;8.57;4.20;;;12.80;67.90;;;;;;4088772;28;20024;-83
2022/08/08 02:26:48;;;;;;;7.10;3.70;;;12.80;67.90;;;;;;4088740;28;20167;-84
2022/08/08 02:29:12;;;;;;;7.57;4.18;;;12.90;68.20;;;;;;4084521;28;20086;-84
2022/08/08 02:31:39;;;;;;;8.07;4.18;;;12.90;68.40;;;;;;4071846;29;20039;-84
2022/08/08 02:34:08;;;;;;;8.95;4.55;;;12.90;68.80;;;;;;4077013;29;20163;-84
2022/08/08 02:36:36;;;;;;;8.70;5.18;;;12.90;69.00;;;;;;4090494;28;20019;-83
2022/08/08 02:38:42;;;;;;;8.07;4.50;;;12.90;69.10;;;;;;4092342;28;20027;-85
2022/08/08 02:41:05;;;;;;;9.88;4.47;;;12.90;69.00;;;;;;4091192;28;20023;-84
2022/08/08 02:43:26;;;;;;;9.02;4.60;;;13.00;69.60;;;;;;4090202;28;20036;-84
2022/08/08 02:46:09;;;;;;;8.13;4.57;;;13.00;69.50;;;;;;4072126;29;20028;-84
2022/08/08 02:48:41;;;;;;;9.18;4.70;;;13.10;69.90;;;;;;4104269;28;20030;-84
2022/08/08 02:51:05;;;;;;;8.95;4.57;;;13.00;69.60;;;;;;4089703;28;20118;-84
2022/08/08 02:53:54;;;;;;;10.75;5.78;;;13.10;69.90;;;;;;4071477;29;20286;-85
2022/08/08 02:56:03;;;;;;;8.65;5.13;;;13.10;70.00;;;;;;4047211;28;20111;-86
2022/08/08 02:58:29;;;;;;;10.70;6.10;;;13.10;69.80;;;;;;4094672;28;20042;-85
2022/08/08 03:00:54;;;;;;;12.45;5.88;;;13.10;70.30;;;;;;4106547;28;20066;-84
2022/08/08 03:03:31;;;;;;;10.68;6.28;;;13.10;70.00;;;;;;4089913;28;20055;-82
2022/08/08 03:05:53;;;;;;;12.15;6.05;;;13.10;70.50;;;;;;4077121;29;20056;-85
2022/08/08 03:08:16;;;;;;;14.50;6.13;;;13.10;70.10;;;;;;4085463;28;20040;-85
2022/08/08 03:10:42;;;;;;;13.43;6.25;;;13.20;70.50;;;;;;4084838;29;20059;-85
2022/08/08 03:13:10;;;;;;;13.48;6.47;;;13.20;70.50;;;;;;4109114;28;20042;-83
2022/08/08 03:15:23;;;;;;;13.98;6.78;;;13.20;70.50;;;;;;4090198;28;20027;-82
2022/08/08 03:17:36;;;;;;;11.27;6.50;;;13.20;70.60;;;;;;4088472;28;20032;-84
2022/08/08 03:20:09;;;;;;;13.60;6.97;;;13.20;70.50;;;;;;4063235;29;20024;-84
2022/08/08 03:22:09;;;;;;;10.98;6.78;;;13.20;71.00;;;;;;4105150;28;20030;-82
2022/08/08 03:24:10;;;;;;;14.02;6.25;;;13.20;70.70;;;;;;4075678;29;20046;-84
2022/08/08 03:26:15;;;;;;;13.30;6.38;;;13.30;70.80;;;;;;4089606;28;20596;-84
2022/08/08 03:28:40;;;;;;;9.80;5.85;;;13.20;71.00;;;;;;4090161;28;20698;-84
2022/08/08 03:30:44;;;;;;;10.32;6.40;;;13.30;71.40;;;;;;4084284;28;20031;-82
2022/08/08 03:35:05;;;;;;;9.32;5.97;;;13.30;71.20;;;;;;4082121;28;20035;-83
2022/08/08 03:37:15;;;;;;;11.35;6.25;;;13.30;72.00;;;;;;4071285;29;20054;-84
2022/08/08 03:39:16;;;;;;;13.45;6.28;;;13.30;71.40;;;;;;4085937;28;20035;-83
2022/08/08 03:41:17;;;;;;;12.98;6.35;;;13.30;71.50;;;;;;4088507;28;20054;-83
2022/08/08 03:43:18;;;;;;;13.13;5.68;;;13.30;71.50;;;;;;4072192;29;20035;-84
2022/08/08 03:45:24;;;;;;;10.82;5.80;;;13.30;71.50;;;;;;4084649;28;20798;-84
2022/08/08 03:47:25;;;;;;;11.77;5.85;;;13.30;71.50;;;;;;4070569;29;20035;-84
2022/08/08 03:49:26;;;;;;;10.07;6.53;;;13.30;71.60;;;;;;4075424;29;20151;-84
2022/08/08 03:51:28;;;;;;;12.27;6.45;;;13.40;71.80;;;;;;4088706;28;20486;-84
2022/08/08 03:53:36;;;;;;;10.63;5.90;;;13.40;71.90;;;;;;4089551;28;20020;-85
2022/08/08 03:55:48;;;;;;;13.07;6.22;;;13.50;72.00;;;;;;4086584;28;20031;-84
2022/08/08 03:57:54;;;;;;;15.38;6.20;;;13.40;72.00;;;;;;4088907;28;20484;-84
2022/08/08 03:59:55;;;;;;;15.20;6.25;;;13.40;72.00;;;;;;4088165;28;20046;-85
2022/08/08 04:01:56;;;;;;;23.35;7.63;;;13.40;72.10;;;;;;4071981;29;20571;-85
2022/08/08 04:03:58;;;;;;;11.57;5.35;;;13.40;72.00;;;;;;4088162;28;20397;-84
2022/08/08 04:06:04;;;;;;;10.15;6.18;;;13.40;72.10;;;;;;4091183;28;20046;-84
2022/08/08 04:08:06;;;;;;;8.77;5.68;;;13.50;72.10;;;;;;4088524;28;20217;-85
2022/08/08 04:10:07;;;;;;;11.68;5.97;;;13.50;72.10;;;;;;4059120;29;20051;-85
2022/08/08 04:12:08;;;;;;;13.60;6.10;;;13.50;72.20;;;;;;4089919;28;20041;-86
2022/08/08 04:14:09;;;;;;;13.27;6.75;;;13.50;72.30;;;;;;4093632;28;20043;-84
2022/08/08 04:16:09;;;;;;;10.48;5.25;;;13.50;72.20;;;;;;4063585;29;20095;-85
2022/08/08 04:18:10;;;;;;;10.02;5.55;;;13.50;72.20;;;;;;4090581;28;20396;-86
2022/08/08 04:20:12;;;;;;;11.90;5.85;;;13.50;72.20;;;;;;4089686;28;20028;-85
2022/08/08 04:22:12;;;;;;;14.55;6.15;;;13.50;72.30;;;;;;4080046;29;20119;-83
2022/08/08 04:24:13;;;;;;;12.57;5.97;;;13.50;72.30;;;;;;4080178;29;20027;-85
2022/08/08 04:26:14;;;;;;;8.57;5.15;;;13.50;72.30;;;;;;4079498;29;20031;-86
2022/08/08 04:28:14;;;;;;;10.68;5.10;;;13.50;72.30;;;;;;4071407;29;20612;-85
2022/08/08 04:30:15;;;;;;;14.45;5.07;;;13.50;72.30;;;;;;4092789;28;20070;-85
2022/08/08 04:32:17;;;;;;;8.52;5.47;;;13.50;72.30;;;;;;4080680;29;20032;-87
2022/08/08 04:34:17;;;;;;;13.68;5.95;;;13.50;72.40;;;;;;4092268;28;20041;-87
2022/08/08 04:36:18;;;;;;;8.85;5.10;;;13.60;72.50;;;;;;4089094;28;20501;-84
2022/08/08 04:38:19;;;;;;;8.93;5.05;;;13.60;72.60;;;;;;4087765;28;20053;-83
2022/08/08 04:40:20;;;;;;;9.90;5.30;;;13.60;72.60;;;;;;4088301;28;20035;-85
2022/08/08 04:42:24;;;;;;;11.13;5.03;;;13.60;72.60;;;;;;4091069;28;20106;-87
2022/08/08 04:44:25;;;;;;;10.35;4.82;;;13.60;72.80;;;;;;4090663;28;20027;-84
2022/08/08 04:46:25;;;;;;;9.23;4.28;;;13.60;72.90;;;;;;4078099;29;20501;-86
2022/08/08 04:48:26;;;;;;;6.82;4.32;;;13.70;73.00;;;;;;4091188;28;20089;-86
2022/08/08 04:50:27;;;;;;;12.15;5.00;;;13.70;73.10;;;;;;4097554;28;20484;-85
2022/08/08 04:52:28;;;;;;;8.02;4.55;;;13.70;73.20;;;;;;4077034;29;20579;-85
2022/08/08 04:54:29;;;;;;;11.10;4.72;;;13.80;73.50;;;;;;4094429;28;20058;-85
2022/08/08 04:56:29;;;;;;;11.80;5.30;;;13.80;73.90;;;;;;4089170;28;20039;-86
2022/08/08 04:58:30;;;;;;;8.60;5.00;;;13.90;74.10;;;;;;4077357;29;20035;-86
2022/08/08 05:00:31;;;;;;;7.82;4.85;;;14.00;74.30;;;;;;4090446;28;20026;-86
2022/08/08 05:02:32;;;;;;;7.75;4.28;;;14.00;74.40;;;;;;4093820;28;20031;-86
2022/08/08 05:04:32;;;;;;;8.27;4.00;;;14.10;74.50;;;;;;4078018;29;20044;-87
2022/08/08 05:06:33;;;;;;;10.07;4.65;;;14.20;74.60;;;;;;4075920;29;20653;-86
2022/08/08 05:08:34;;;;;;;8.57;4.00;;;14.20;74.60;;;;;;4090246;28;20441;-86
2022/08/08 05:10:34;;;;;;;9.25;4.40;;;14.30;74.40;;;;;;4102313;28;20050;-86
2022/08/08 05:12:35;;;;;;;11.93;4.45;;;14.30;74.30;;;;;;4087480;28;20043;-79
2022/08/08 05:14:36;;;;;;;9.18;3.78;;;14.40;74.30;;;;;;4076407;29;20528;-83
2022/08/08 05:16:37;;;;;;;9.75;3.70;;;14.40;74.10;;;;;;4081170;28;20086;-82
2022/08/08 05:18:38;;;;;;;7.88;3.72;;;14.50;74.10;;;;;;4086898;28;20102;-82
2022/08/08 05:20:38;;;;;;;9.48;3.53;;;14.60;74.20;;;;;;4073045;29;20039;-82
2022/08/08 05:22:39;;;;;;;11.05;3.95;;;14.60;74.30;;;;;;4070192;29;20066;-83
2022/08/08 05:24:40;;;;;;;8.10;3.63;;;14.70;74.30;;;;;;4064564;29;20087;-83
2022/08/08 05:26:45;;;;;;;8.18;3.75;;;14.70;74.30;;;;;;4070598;29;20107;-82
2022/08/08 05:28:46;;;;;;;11.38;3.50;;;14.80;74.30;;;;;;4085895;28;20038;-83
2022/08/08 05:30:47;;;;;;;5.90;3.30;;;14.90;74.40;;;;;;4070667;29;20032;-84
2022/08/08 05:32:48;;;;;;;7.32;3.90;;;14.90;74.50;;;;;;4096835;28;20512;-82
2022/08/08 05:34:50;;;;;;;12.57;3.63;;;15.00;74.80;;;;;;4077382;28;20063;-84
2022/08/08 05:36:53;;;;;;;13.35;3.95;;;15.10;74.80;;;;;;4088484;28;20035;-84
2022/08/08 05:38:56;;;;;;;14.57;3.65;;;15.20;74.60;;;;;;4055351;29;20062;-83
2022/08/08 05:40:57;;;;;;;9.15;3.72;;;15.30;74.30;;;;;;4069622;29;20047;-84
2022/08/08 05:43:06;;;;;;;8.05;3.60;;;15.30;74.00;;;;;;4077892;28;20031;-84
2022/08/08 05:45:09;;;;;;;8.90;3.42;;;15.40;73.80;;;;;;4082771;28;20058;-84
2022/08/08 05:47:12;;;;;;;8.98;3.70;;;15.40;73.50;;;;;;4099280;28;20030;-84
2022/08/08 05:49:13;;;;;;;12.20;3.83;;;15.50;73.20;;;;;;4081409;28;20051;-83
2022/08/08 05:51:16;;;;;;;8.13;4.10;;;15.60;72.90;;;;;;4083074;28;20123;-85
2022/08/08 05:53:24;;;;;;;8.02;3.72;;;15.60;72.50;;;;;;4053324;29;20541;-84
2022/08/08 05:55:27;;;;;;;10.82;3.75;;;15.60;72.20;;;;;;4080625;28;20054;-84
2022/08/08 05:57:32;;;;;;;7.53;3.40;;;15.70;72.00;;;;;;4085524;28;20047;-84
2022/08/08 05:59:37;;;;;;;6.28;3.20;;;15.70;71.90;;;;;;4083809;28;20055;-84
2022/08/08 06:01:41;;;;;;;7.82;3.67;;;15.70;71.80;;;;;;4086109;28;20035;-84
2022/08/08 06:03:47;;;;;;;15.18;3.38;;;15.70;71.60;;;;;;4089456;28;20030;-85
2022/08/08 06:05:57;;;;;;;6.57;3.15;;;15.70;71.50;;;;;;4080586;28;20023;-86
2022/08/08 06:07:59;;;;;;;10.95;3.60;;;15.80;71.50;;;;;;4070813;29;20040;-84
2022/08/08 06:10:02;;;;;;;6.10;2.88;;;15.80;71.40;;;;;;4100587;28;20337;-85
2022/08/08 06:12:03;;;;;;;7.30;3.20;;;15.90;71.40;;;;;;4083780;28;20035;-85
2022/08/08 06:14:05;;;;;;;8.50;2.95;;;15.90;71.30;;;;;;4065154;29;20366;-85
2022/08/08 06:16:11;;;;;;;10.25;3.20;;;15.90;71.20;;;;;;4078451;28;20405;-85
2022/08/08 06:18:14;;;;;;;6.25;3.25;;;16.00;71.20;;;;;;4064116;29;20099;-85
2022/08/08 06:20:14;;;;;;;10.05;2.70;;;16.00;71.20;;;;;;4089606;28;20031;-85
2022/08/08 06:22:15;;;;;;;5.72;2.40;;;16.00;71.20;;;;;;4077020;28;20489;-85
2022/08/08 06:24:16;;;;;;;13.13;2.47;;;16.00;71.10;;;;;;4082951;28;20489;-84
2022/08/08 06:26:18;;;;;;;7.00;2.50;;;16.10;71.20;;;;;;4063525;29;20036;-85
2022/08/08 06:28:31;;;;;;;8.25;2.40;;;16.10;71.10;;;;;;4068603;29;20050;-83
2022/08/08 06:30:33;;;;;;;8.53;2.70;;;16.20;71.20;;;;;;4091176;28;20034;-81
2022/08/08 06:32:46;;;;;;;10.82;2.90;;;16.20;71.00;;;;;;4082531;28;20286;-83
2022/08/08 06:34:51;;;;;;;10.87;2.57;;;16.20;71.00;;;;;;4079117;28;20034;-82
2022/08/08 06:36:56;;;;;;;9.90;2.10;;;16.30;70.90;;;;;;4062859;29;20083;-83
2022/08/08 06:39:00;;;;;;;10.57;1.95;;;16.30;70.70;;;;;;4075737;28;20114;-82
2022/08/08 06:41:09;;;;;;;8.40;2.65;;;16.40;70.60;;;;;;4076330;28;20047;-84
2022/08/08 06:43:16;;;;;;;12.05;2.45;;;16.40;70.40;;;;;;4077814;28;20024;-84
2022/08/08 06:45:19;;;;;;;4.45;2.15;;;16.50;70.30;;;;;;4066964;29;20036;-83
2022/08/08 06:47:20;;;;;;;12.80;2.08;;;16.50;70.90;;;;;;4081251;28;20191;-83
2022/08/08 06:49:21;;;;;;;10.57;2.38;;;16.50;70.00;;;;;;4066236;29;20888;-84
2022/08/08 06:51:22;;;;;;;14.80;2.55;;;16.60;70.00;;;;;;4064702;29;20058;-84
2022/08/08 06:53:26;;;;;;;14.13;2.45;;;16.60;70.00;;;;;;4065974;29;20166;-84
2022/08/08 06:55:28;;;;;;;12.23;2.00;;;16.70;69.90;;;;;;4084516;28;20047;-85
2022/08/08 06:57:29;;;;;;;12.85;2.22;;;16.70;69.70;;;;;;4081984;28;20030;-84
2022/08/08 06:59:30;;;;;;;13.88;2.30;;;16.70;69.50;;;;;;4080248;29;20482;-83
2022/08/08 07:01:44;;;;;;;10.75;2.30;;;16.80;69.40;;;;;;4079834;28;21218;-85
2022/08/08 07:03:54;;;;;;;12.50;2.05;;;16.80;69.10;;;;;;4082218;28;20039;-85
2022/08/08 07:05:59;;;;;;;9.45;2.00;;;16.90;69.00;;;;;;4066918;29;20046;-84
2022/08/08 07:08:21;;;;;;;12.50;1.92;;;17.00;69.10;;;;;;4080934;28;20028;-84
2022/08/08 07:10:24;;;;;;;7.82;1.60;;;17.00;69.40;;;;;;4074203;28;20036;-85
2022/08/08 07:12:41;;;;;;;6.18;1.38;;;17.10;68.70;;;;;;4065058;29;20140;-84
2022/08/08 07:14:57;;;;;;;6.85;1.65;;;17.20;68.60;;;;;;4061851;29;20135;-84
2022/08/08 07:17:03;;;;;;;10.25;1.50;;;17.20;68.50;;;;;;4084542;28;20024;-85
2022/08/08 07:19:09;;;;;;;10.48;2.00;;;17.20;68.30;;;;;;4057873;29;20032;-84
2022/08/08 07:21:13;;;;;;;5.93;1.55;;;17.30;68.10;;;;;;4070971;29;20032;-84
2022/08/08 07:23:26;;;;;;;9.60;2.03;;;17.40;67.90;;;;;;4085169;28;20030;-84
2022/08/08 07:25:31;;;;;;;10.77;1.77;;;17.40;67.40;;;;;;4088799;28;20229;-84
2022/08/08 07:27:39;;;;;;;6.07;1.55;;;17.40;67.30;;;;;;4072657;29;20465;-84
2022/08/08 07:29:40;;;;;;;7.70;1.42;;;17.40;67.00;;;;;;4087682;28;20043;-86
2022/08/08 07:31:42;;;;;;;5.70;1.50;;;17.50;66.80;;;;;;4093268;28;20027;-84
2022/08/08 07:33:43;;;;;;;6.63;1.48;;;17.60;66.50;;;;;;4087495;28;20054;-86
2022/08/08 07:35:46;;;;;;;10.52;1.15;;;17.60;66.10;;;;;;4069187;29;20501;-85
2022/08/08 07:37:49;;;;;;;10.90;1.60;;;17.60;65.80;;;;;;4091449;28;20035;-88
2022/08/08 07:39:50;;;;;;;5.35;1.48;;;17.60;65.70;;;;;;4095772;28;20519;-87
2022/08/08 07:41:51;;;;;;;5.95;1.75;;;17.70;65.50;;;;;;4087581;28;20027;-88
2022/08/08 07:43:55;;;;;;;5.38;1.05;;;17.70;65.00;;;;;;4066405;29;20039;-87
2022/08/08 07:45:55;;;;;;;;;;;17.70;64.30;;;;;;4084476;28;20503;-87
2022/08/08 07:47:57;;;;;;;5.95;1.42;;;17.70;64.10;;;;;;4048284;29;19919;-89
2022/08/08 07:49:58;;;;;;;4.90;1.00;;;17.70;64.10;;;;;;4083008;28;20031;-86
2022/08/08 07:52:00;;;;;;;4.82;1.52;;;17.80;64.10;;;;;;4078324;28;21134;-87
2022/08/08 07:54:16;;;;;;;5.10;1.35;;;17.80;64.10;;;;;;4069463;29;20032;-88
2022/08/08 07:56:16;;;;;;;8.57;1.25;;;17.80;63.60;;;;;;4080770;28;20042;-86
2022/08/08 07:58:29;;;;;;;4.68;1.13;;;17.80;63.60;;;;;;4085038;28;20035;-89
2022/08/08 08:00:51;;;;;;;8.38;1.80;;;17.80;63.20;;;;;;4058105;29;20032;-87
2022/08/08 08:03:06;;;;;;;7.95;1.10;;;17.80;62.90;;;;;;4088558;28;20471;-86
2022/08/08 08:05:15;;;;;;;3.80;0.90;;;17.90;62.90;;;;;;4074033;28;20035;-86
2022/08/08 08:07:17;;;;;;;5.78;1.20;;;17.90;62.80;;;;;;4076644;28;20626;-86
2022/08/08 08:09:23;;;;;;;4.30;0.80;;;17.90;62.50;;;;;;4078813;28;20035;-86
2022/08/08 08:11:27;;;;;;;3.92;1.08;;;17.90;62.20;;;;;;4087452;28;20167;-86
2022/08/08 08:13:28;;;;;;;3.75;0.90;;;17.90;62.10;;;;;;4087835;28;20032;-87
2022/08/08 08:15:29;;;;;;;7.32;2.88;;;18.00;62.20;;;;;;4071055;29;20497;-85
2022/08/08 08:17:30;;;;;;;3.92;1.08;;;18.00;62.10;;;;;;4082523;28;20110;-86
2022/08/08 08:19:31;;;;;;;8.10;1.02;;;18.00;61.80;;;;;;4086423;28;20063;-86
2022/08/08 08:21:43;;;;;;;5.25;1.13;;;18.10;61.20;;;;;;4086617;28;20027;-85
2022/08/08 08:23:44;;;;;;;5.18;1.08;;;18.10;61.00;;;;;;4084362;28;20038;-86
2022/08/08 08:25:45;;;;;;;7.22;1.10;;;18.10;60.70;;;;;;4056257;29;20114;-86
2022/08/08 08:27:46;;;;;;;3.25;0.93;;;18.10;60.50;;;;;;4090491;28;20401;-86
2022/08/08 08:29:47;;;;;;;3.35;0.80;;;18.20;60.30;;;;;;4090092;28;20115;-86
2022/08/08 08:31:48;;;;;;;6.18;0.90;;;18.20;60.30;;;;;;4089508;28;20105;-87
2022/08/08 08:33:48;;;;;;;8.18;0.80;;;18.20;61.10;;;;;;4079672;28;20035;-85
2022/08/08 08:35:49;;;;;;;6.82;1.10;;;18.30;60.30;;;;;;4059167;29;20032;-87
2022/08/08 08:37:50;;;;;;;2.95;0.73;;;18.30;60.40;;;;;;4088226;28;20066;-86
2022/08/08 08:39:50;;;;;;;4.28;1.10;;;18.30;60.50;;;;;;4076062;29;20114;-85
2022/08/08 08:41:52;;;;;;;2.08;0.70;;;18.40;60.50;;;;;;4075365;29;20449;-86
2022/08/08 08:43:56;;;;;;;3.50;0.80;;;18.40;60.60;;;;;;4073756;29;20028;-86
2022/08/08 08:45:59;;;;;;;6.53;1.00;;;18.50;60.70;;;;;;4065710;29;20024;-85
2022/08/08 08:47:59;;;;;;;2.90;0.75;;;18.50;60.40;;;;;;4087206;28;20067;-86
2022/08/08 08:50:00;;;;;;;5.88;1.33;;;18.60;60.30;;;;;;4085189;28;20089;-86
2022/08/08 08:52:03;;;;;;;3.38;0.85;;;18.70;60.00;;;;;;4074659;29;20535;-86
2022/08/08 08:54:06;;;;;;;5.13;1.17;;;18.80;59.50;;;;;;4092315;28;20130;-86
2022/08/08 08:56:09;;;;;;;3.13;1.00;;;18.80;59.20;;;;;;4085928;29;20110;-86
2022/08/08 08:58:24;;;;;;;5.35;0.98;;;18.90;59.10;;;;;;4085642;28;21558;-87
2022/08/08 09:00:26;;;;;;;4.40;0.90;;;19.00;59.10;;;;;;4105486;28;20038;-85
2022/08/08 09:02:28;;;;;;;4.60;1.10;;;19.00;59.30;;;;;;4077022;29;20074;-85
2022/08/08 09:04:34;;;;;;;6.05;1.20;;;19.10;59.30;;;;;;4090988;28;20035;-85
2022/08/08 09:06:40;;;;;;;5.95;1.00;;;19.20;58.70;;;;;;4089080;28;20027;-85
2022/08/08 09:08:45;;;;;;;5.05;1.23;;;19.30;58.80;;;;;;4102954;28;20026;-86
2022/08/08 09:10:46;;;;;;;4.40;1.25;;;19.40;58.40;;;;;;4076692;29;20032;-86
2022/08/08 09:12:49;;;;;;;4.18;0.98;;;19.40;58.10;;;;;;4076980;29;20031;-86
2022/08/08 09:14:53;;;;;;;3.47;0.77;;;19.50;57.90;;;;;;4074612;29;20040;-87
2022/08/08 09:16:54;;;;;;;2.40;0.70;;;19.60;58.10;;;;;;4073108;29;20025;-86
2022/08/08 09:18:56;;;;;;;3.95;0.90;;;19.70;58.20;;;;;;4074262;29;20460;-85
2022/08/08 09:20:59;;;;;;;3.35;0.85;;;19.80;58.10;;;;;;4091847;28;20027;-85
2022/08/08 09:23:01;;;;;;;7.10;1.20;;;19.90;57.90;;;;;;4105277;28;20023;-86
2022/08/08 09:25:03;;;;;;;6.97;1.15;;;19.90;57.60;;;;;;4084269;28;20038;-86
2022/08/08 09:27:11;;;;;;;3.20;0.93;;;20.00;57.00;;;;;;4072784;29;20509;-86
2022/08/08 09:29:22;;;;;;;3.50;1.17;;;20.10;56.70;;;;;;4078196;28;20050;-86
2022/08/08 09:31:43;;;;;;;8.30;1.10;;;20.20;56.50;;;;;;4083191;28;20055;-85
2022/08/08 09:33:45;;;;;;;4.45;1.08;;;20.20;56.10;;;;;;4095626;28;20030;-85
2022/08/08 09:35:47;;;;;;;4.10;0.93;;;20.30;55.90;;;;;;4091881;28;20131;-85
2022/08/08 09:37:53;;;;;;;5.43;0.93;;;20.40;56.30;;;;;;4070947;29;20071;-85
2022/08/08 09:40:03;;;;;;;5.22;0.90;;;20.40;55.80;;;;;;4082721;28;20721;-86
2022/08/08 09:42:09;;;;;;;5.40;0.80;;;20.50;55.70;;;;;;4072031;28;20121;-85
2022/08/08 09:44:19;;;;;;;3.72;0.90;;;20.50;55.70;;;;;;4045379;29;20466;-84
2022/08/08 09:46:22;;;;;;;6.22;1.33;;;20.60;55.70;;;;;;4081949;28;20085;-85
2022/08/08 09:48:23;;;;;;;3.58;0.93;;;20.60;54.90;;;;;;4082459;28;20219;-85
2022/08/08 09:50:26;;;;;;;3.55;0.65;;;20.60;54.70;;;;;;4086734;28;20031;-84
2022/08/08 09:52:30;;;;;;;4.35;0.90;;;20.70;54.90;;;;;;4067189;29;20409;-85
2022/08/08 09:54:42;;;;;;;6.68;1.45;;;20.70;55.00;;;;;;4082516;28;20098;-85
2022/08/08 09:56:49;;;;;;;4.25;1.20;;;20.70;54.50;;;;;;4059690;29;20123;-85
2022/08/08 09:59:01;;;;;;;4.53;1.08;;;20.80;53.80;;;;;;4074962;28;20047;-85
2022/08/08 10:01:05;;;;;;;6.57;0.90;;;20.80;54.00;;;;;;4057678;29;20433;-84
2022/08/08 10:03:06;;;;;;;6.90;0.82;;;20.80;54.20;;;;;;4097534;28;20024;-85
2022/08/08 10:05:16;;;;;;;2.05;0.88;;;20.80;54.00;;;;;;4084250;28;20027;-85
2022/08/08 10:07:18;;;;;;;4.30;1.00;;;20.80;53.90;;;;;;4084382;28;20118;-85
2022/08/08 10:09:32;;;;;;;3.78;0.90;;;20.80;53.50;;;;;;4099104;28;20059;-86
2022/08/08 10:11:35;;;;;;;4.07;0.90;;;20.80;52.90;;;;;;4084794;28;20074;-81
2022/08/08 10:13:36;;;;;;;4.03;1.30;;;20.70;53.30;;;;;;4082254;28;20040;-82
2022/08/08 10:15:37;;;;;;;9.43;1.30;;;20.70;53.40;;;;;;4084138;28;20090;-82
2022/08/08 10:17:46;;;;;;;4.50;0.95;;;20.60;53.30;;;;;;4083881;28;20035;-82
2022/08/08 10:19:47;;;;;;;9.35;1.05;;;20.60;53.80;;;;;;4082606;28;20204;-83
2022/08/08 10:21:52;;;;;;;4.15;0.93;;;20.50;54.00;;;;;;4086139;28;20162;-80
2022/08/08 10:23:56;;;;;;;10.07;1.33;;;20.50;53.90;;;;;;4091790;28;20033;-82
2022/08/08 10:25:57;;;;;;;5.35;0.80;;;20.50;54.10;;;;;;4083574;28;20397;-80
2022/08/08 10:27:59;;;;;;;2.28;0.75;;;20.50;54.00;;;;;;4066203;29;20116;-83
2022/08/08 10:30:01;;;;;;;6.18;1.33;;;20.40;53.90;;;;;;4085241;28;20575;-79
2022/08/08 10:34:26;;;;;;;4.05;1.00;;;20.40;54.20;;;;;;4088728;28;20041;-82
2022/08/08 10:36:27;;;;;;;3.78;0.77;;;20.40;54.20;;;;;;4068619;29;20028;-82
2022/08/08 10:38:30;;;;;;;3.50;1.13;;;20.40;54.20;;;;;;4086141;28;20444;-80
2022/08/08 10:40:31;;;;;;;3.47;1.17;;;20.40;54.10;;;;;;4086880;28;20488;-81
2022/08/08 10:42:35;;;;;;;7.85;1.15;;;20.40;54.00;;;;;;4084726;28;20030;-80
2022/08/08 10:44:38;;;;;;;3.20;0.80;;;20.40;53.80;;;;;;4085182;28;20039;-81
2022/08/08 10:46:39;;;;;;;3.90;0.85;;;20.40;53.90;;;;;;4086839;28;20038;-80
2022/08/08 10:48:44;;;;;;;5.88;1.13;;;20.40;54.20;;;;;;4085522;28;20031;-80
2022/08/08 10:50:44;;;;;;;5.38;0.70;;;20.40;54.20;;;;;;4071669;29;20023;-81
2022/08/08 10:52:45;;;;;;;3.80;0.85;;;20.40;54.10;;;;;;4094165;28;20045;-80
2022/08/08 10:54:54;;;;;;;3.10;0.90;;;20.50;54.10;;;;;;4090984;28;20035;-80
2022/08/08 10:56:59;;;;;;;3.67;0.95;;;20.50;54.10;;;;;;4090012;28;20561;-81
2022/08/08 10:59:03;;;;;;;4.03;0.80;;;20.60;54.20;;;;;;4091290;28;20393;-83
2022/08/08 11:01:08;;;;;;;1.80;0.47;;;20.60;54.20;;;;;;4087701;28;20024;-80
2022/08/08 11:03:12;;;;;;;3.80;0.80;;;20.70;54.10;;;;;;4083940;28;20019;-84
2022/08/08 11:05:12;;;;;;;4.18;0.70;;;20.80;53.90;;;;;;4069575;29;20035;-83
2022/08/08 11:07:23;;;;;;;3.38;0.85;;;20.90;53.90;;;;;;4086672;28;20038;-82
2022/08/08 11:09:24;;;;;;;4.18;0.75;;;21.00;53.30;;;;;;4069773;29;21264;-84
2022/08/08 11:11:25;;;;;;;4.53;0.68;;;21.00;53.40;;;;;;4086236;28;20047;-86
2022/08/08 11:13:25;;;;;;;2.13;0.43;;;21.10;53.20;;;;;;4086287;28;20038;-86
2022/08/08 11:15:30;;;;;;;3.10;0.68;;;21.20;52.70;;;;;;4076687;29;20043;-85